Time;durP1;ratioP1;P1;durP2;ratioP2;P2;SDS_P1;SDS_P2;PMS_P1;PMS_P2;Temp;Humidity;BMP_temperature;BMP_pressure;BME280_temperature;BME280_humidity;BME280_pressure;Samples;Min_cycle;Max_cycle;Signal;HPM_P1;HPM_P2
2022/08/18 00:14:23;;;;;;;14.80;11.33;;;;;;;22.07;61.88;99740.00;30868832;28;96618;-59
2022/08/18 00:29:24;;;;;;;13.77;10.57;;;;;;;21.80;62.79;99730.81;30867541;28;96721;-62
2022/08/18 00:44:24;;;;;;;13.13;11.30;;;;;;;21.59;63.49;99727.03;30864884;28;96613;-59
2022/08/18 00:59:28;;;;;;;15.93;11.90;;;;;;;21.48;64.40;99711.72;30864252;28;97310;-59
2022/08/18 01:14:28;;;;;;;17.93;12.23;;;;;;;21.37;64.90;99694.53;30862410;28;96827;-58
2022/08/18 01:29:29;;;;;;;13.33;11.37;;;;;;;21.19;65.33;99697.59;30860911;28;97275;-60
2022/08/18 01:44:29;;;;;;;14.43;11.77;;;;;;;20.94;65.93;99710.56;30858294;28;96717;-59
2022/08/18 01:59:30;;;;;;;14.60;10.70;;;;;;;20.67;66.77;99710.41;30857956;28;96770;-58
2022/08/18 02:14:30;;;;;;;14.50;11.27;;;;;;;20.62;67.28;99719.25;30857256;28;96973;-62
2022/08/18 02:29:31;;;;;;;14.30;11.90;;;;;;;20.49;67.41;99705.28;30855644;28;114066;-64
2022/08/18 02:44:32;;;;;;;12.57;11.27;;;;;;;20.28;68.04;99699.53;30853540;28;97234;-64
2022/08/18 02:59:32;;;;;;;19.53;12.23;;;;;;;20.16;68.46;99706.94;30853124;28;98480;-60
2022/08/18 03:14:34;;;;;;;18.75;12.02;;;;;;;20.09;68.62;99710.63;30850764;28;96819;-64
2022/08/18 03:29:35;;;;;;;13.63;12.10;;;;;;;19.87;69.01;99699.69;30864589;28;96636;-60
2022/08/18 03:44:36;;;;;;;14.70;12.20;;;;;;;19.69;69.75;99716.09;30863992;28;97050;-61
2022/08/18 03:59:40;;;;;;;18.60;12.77;;;;;;;19.68;70.06;99731.47;31007694;28;98711;-58
2022/08/18 04:14:45;;;;;;;18.67;13.10;;;;;;;19.87;70.26;99742.13;31111205;28;97144;-58
2022/08/18 04:29:46;;;;;;;17.67;13.73;;;;;;;20.11;70.18;99737.41;31106574;28;96680;-59
2022/08/18 04:44:46;;;;;;;20.43;13.47;;;;;;;20.42;70.14;99743.31;31107669;28;96894;-59
2022/08/18 04:59:49;;;;;;;18.25;14.68;;;;;;;20.87;69.88;99745.13;31105338;28;96753;-58
2022/08/18 05:14:51;;;;;;;28.20;14.97;;;;;;;21.62;68.71;99742.00;31104365;28;97297;-59
2022/08/18 05:29:51;;;;;;;20.70;15.30;;;;;;;21.83;67.86;99755.75;31104463;28;97300;-58
2022/08/18 05:44:53;;;;;;;20.90;16.70;;;;;;;22.91;67.25;99779.19;31100748;28;100933;-60
2022/08/18 05:59:54;;;;;;;21.87;14.90;;;;;;;23.99;64.73;99771.50;31100586;28;97411;-58
2022/08/18 06:15:00;;;;;;;;;;;;;;;24.61;62.86;99771.56;31098660;28;96989;-59
2022/08/18 06:30:42;;;;;;;25.63;15.87;;;;;;;25.25;61.30;99769.22;31097351;28;97109;-59
2022/08/18 06:45:50;;;;;;;22.47;16.57;;;;;;;25.82;59.41;99758.88;31095138;28;97106;-58
2022/08/18 07:00:51;;;;;;;23.83;17.00;;;;;;;26.59;57.12;99781.28;31105153;28;97038;-59
2022/08/18 07:16:14;;;;;;;18.75;15.15;;;;;;;28.01;55.22;99777.16;31114459;28;97353;-60
2022/08/18 07:31:38;;;;;;;20.53;16.23;;;;;;;29.38;52.00;99765.97;31115455;28;96945;-58
2022/08/18 07:46:42;;;;;;;23.13;15.97;;;;;;;30.15;49.67;99757.16;31110645;28;96811;-60
2022/08/18 08:01:53;;;;;;;17.47;14.10;;;;;;;31.04;47.52;99776.59;31110111;28;96687;-59
2022/08/18 08:17:16;;;;;;;17.20;13.67;;;;;;;32.19;44.32;99771.00;31110838;28;97328;-62
2022/08/18 08:33:02;;;;;;;14.17;12.70;;;;;;;32.61;43.64;99797.97;31108104;28;97555;-63
2022/08/18 08:48:11;;;;;;;14.53;12.07;;;;;;;33.64;40.40;99808.13;31106922;28;96724;-62
2022/08/18 09:03:35;;;;;;;15.27;10.47;;;;;;;33.55;38.82;99808.16;31105533;28;97297;-59
2022/08/18 09:19:05;;;;;;;15.43;11.20;;;;;;;34.85;35.38;99787.25;31074885;28;97852;-64
2022/08/18 09:34:41;;;;;;;11.50;10.13;;;;;;;42.05;25.31;99768.38;30894565;28;97044;-60
2022/08/18 09:50:17;;;;;;;11.93;9.70;;;;;;;40.02;25.64;99768.00;30969270;28;97052;-60
2022/08/18 10:05:18;;;;;;;11.27;8.77;;;;;;;38.20;27.80;99726.66;30968218;28;97786;-60
2022/08/18 10:20:40;;;;;;;13.77;9.93;;;;;;;37.48;27.98;99693.84;30972154;28;97455;-60
2022/08/18 10:35:40;;;;;;;11.37;6.97;;;;;;;37.63;27.17;99681.06;30971136;28;96664;-64
2022/08/18 10:50:51;;;;;;;9.00;6.72;;;;;;;37.43;26.27;99687.41;30972282;28;97447;-60
2022/08/18 11:06:05;;;;;;;10.53;7.30;;;;;;;37.09;27.25;99664.03;30973714;28;97459;-62
2022/08/18 11:21:23;;;;;;;9.20;7.10;;;;;;;36.99;26.57;99670.16;30967525;28;97819;-61
2022/08/18 11:36:30;;;;;;;11.30;8.13;;;;;;;37.63;27.52;99658.81;30970157;28;97644;-60
2022/08/18 11:51:32;;;;;;;10.33;8.70;;;;;;;38.13;27.28;99654.22;30984141;28;97117;-61
2022/08/18 12:06:34;;;;;;;11.57;9.47;;;;;;;38.30;26.96;99643.81;30987258;28;96733;-62
2022/08/18 12:21:44;;;;;;;13.07;8.73;;;;;;;38.82;26.51;99628.31;30983822;28;97782;-65
2022/08/18 12:36:45;;;;;;;11.07;10.03;;;;;;;38.80;26.14;99633.47;30980942;28;96774;-59
2022/08/18 12:51:46;;;;;;;15.10;10.80;;;;;;;38.96;25.50;99638.88;30916009;28;97757;-60
2022/08/18 13:06:50;;;;;;;12.10;10.57;;;;;;;37.88;26.27;99650.97;30851042;28;98542;-60
2022/08/18 13:21:50;;;;;;;10.30;9.30;;;;;;;38.07;26.52;99617.59;30848005;28;97151;-62
2022/08/18 13:36:50;;;;;;;11.70;8.85;;;;;;;37.40;25.94;99620.66;30847263;28;97674;-63
2022/08/18 13:51:58;;;;;;;10.05;7.85;;;;;;;36.90;26.92;99614.84;30844884;28;97196;-62
2022/08/18 14:06:59;;;;;;;9.80;6.60;;;;;;;36.53;27.20;99584.66;30879852;28;98536;-60
2022/08/18 14:37:19;;;;;;;11.43;6.57;;;;;;;35.71;27.52;99548.94;30959626;28;97054;-59
2022/08/18 14:52:22;;;;;;;14.20;7.60;;;;;;;35.36;28.33;99537.72;30944608;28;97459;-60
2022/08/18 15:07:23;;;;;;;12.13;6.73;;;;;;;34.93;28.70;99542.84;30909273;28;97441;-62
2022/08/18 15:37:43;;;;;;;7.63;6.77;;;;;;;34.24;29.59;99578.56;30869415;28;97007;-60
2022/08/18 15:52:56;;;;;;;8.43;6.53;;;;;;;33.78;30.06;99566.78;30868170;28;97560;-59
2022/08/18 16:07:58;;;;;;;12.37;8.30;;;;;;;33.17;31.61;99532.25;30865760;28;97500;-59
2022/08/18 16:23:00;;;;;;;10.93;6.93;;;;;;;33.00;32.51;99522.97;30863491;28;97340;-60
2022/08/18 16:38:03;;;;;;;9.30;6.93;;;;;;;32.79;33.01;99500.13;30858165;28;97962;-60
2022/08/18 16:53:04;;;;;;;10.93;7.90;;;;;;;32.22;34.03;99464.50;30901691;28;97128;-60
2022/08/18 17:08:04;;;;;;;11.45;7.30;;;;;;;31.78;35.21;99457.56;30872982;28;97448;-60
2022/08/18 17:23:04;;;;;;;10.90;7.53;;;;;;;31.25;36.60;99470.63;30934861;28;97401;-63
2022/08/18 17:38:20;;;;;;;10.93;7.28;;;;;;;31.02;37.42;99477.16;30849240;28;97283;-61
2022/08/18 17:53:21;;;;;;;12.10;7.87;;;;;;;30.63;38.42;99508.31;30938441;28;97382;-60
2022/08/18 18:08:47;;;;;;;12.00;8.40;;;;;;;30.10;39.61;99538.41;30967510;28;97532;-62
2022/08/18 18:24:08;;;;;;;11.33;8.30;;;;;;;29.58;41.19;99568.28;30967524;28;97228;-62
2022/08/18 18:39:22;;;;;;;11.53;8.87;;;;;;;28.92;42.58;99552.25;30882607;28;97273;-61
2022/08/18 18:54:39;;;;;;;13.83;8.10;;;;;;;27.96;44.91;99547.28;30847574;28;97107;-62
2022/08/18 19:09:55;;;;;;;12.27;8.87;;;;;;;27.33;46.82;99532.22;30851237;28;96678;-59
2022/08/18 19:25:12;;;;;;;12.93;9.47;;;;;;;26.83;48.28;99480.75;30850557;28;97086;-59
2022/08/18 19:40:18;;;;;;;11.77;10.30;;;;;;;26.38;49.85;99469.34;30847461;28;97772;-60
2022/08/18 19:55:40;;;;;;;11.47;9.37;;;;;;;25.96;51.27;99448.00;30850145;28;96823;-59
2022/08/18 20:10:47;;;;;;;11.87;9.83;;;;;;;25.58;52.59;99453.31;30861516;28;96762;-59
2022/08/18 20:25:48;;;;;;;13.63;10.03;;;;;;;25.28;53.87;99429.88;30867271;28;96694;-61
2022/08/18 20:40:50;;;;;;;12.50;10.10;;;;;;;25.03;54.72;99439.88;30864230;28;98555;-58
2022/08/18 20:56:24;;;;;;;12.00;8.73;;;;;;;24.97;55.29;99460.91;30863367;28;97543;-63
2022/08/18 21:11:44;;;;;;;9.60;8.60;;;;;;;25.04;55.60;99465.22;30861844;28;97394;-62
2022/08/18 21:26:45;;;;;;;10.33;8.33;;;;;;;25.07;55.41;99473.63;30860763;28;97945;-61
2022/08/18 21:41:55;;;;;;;10.77;8.33;;;;;;;25.07;55.39;99464.63;30857982;28;97038;-59
2022/08/18 21:57:24;;;;;;;10.63;8.60;;;;;;;25.01;55.54;99482.94;30859722;28;97121;-62
2022/08/18 22:27:48;;;;;;;10.63;8.27;;;;;;;24.98;55.16;99525.19;30853994;28;96988;-62
2022/08/18 22:42:48;;;;;;;9.13;7.90;;;;;;;25.06;55.27;99512.88;30854158;28;96760;-65
2022/08/18 22:57:49;;;;;;;11.52;7.75;;;;;;;25.55;54.29;99508.44;30845197;28;97004;-64
2022/08/18 23:12:50;;;;;;;9.93;7.87;;;;;;;25.61;53.54;99487.38;30848672;28;96926;-58
2022/08/18 23:27:53;;;;;;;10.48;7.60;;;;;;;25.55;53.40;99467.53;30852325;28;96785;-62
2022/08/18 23:42:53;;;;;;;10.93;7.47;;;;;;;25.42;53.31;99470.94;30858815;28;96787;-59
2022/08/18 23:57:54;;;;;;;10.70;8.77;;;;;;;25.33;53.54;99454.38;30870481;28;96724;-58
